Time;durP1;ratioP1;P1;durP2;ratioP2;P2;SDS_P1;SDS_P2;PMS_P1;PMS_P2;Temp;Humidity;BMP_temperature;BMP_pressure;BME280_temperature;BME280_humidity;BME280_pressure;Samples;Min_cycle;Max_cycle;Signal;HPM_P1;HPM_P2
2023/01/28 00:03:11;;;;;;;;;;;17.00;48.90;;;;;;10205554;28;1964;-82
2023/01/28 00:08:06;;;;;;;;;;;17.00;48.90;;;;;;10209842;28;979;-83
2023/01/28 00:13:02;;;;;;;;;;;17.10;48.90;;;;;;10209925;28;877;-82
2023/01/28 00:17:57;;;;;;;;;;;17.00;48.90;;;;;;10209679;28;865;-82
2023/01/28 00:22:53;;;;;;;;;;;17.00;49.50;;;;;;10210021;28;1944;-82
2023/01/28 00:27:48;;;;;;;;;;;17.00;49.00;;;;;;10209916;28;972;-82
2023/01/28 00:32:43;;;;;;;;;;;17.00;48.90;;;;;;10209117;28;750;-82
2023/01/28 00:37:39;;;;;;;;;;;17.00;48.90;;;;;;10209504;28;907;-82
2023/01/28 00:42:34;;;;;;;;;;;17.00;48.90;;;;;;10209010;28;1899;-82
2023/01/28 00:47:29;;;;;;;;;;;17.00;49.00;;;;;;10208603;28;775;-82
2023/01/28 00:52:26;;;;;;;;;;;17.00;48.90;;;;;;10208947;28;873;-82
2023/01/28 00:57:21;;;;;;;;;;;17.00;48.90;;;;;;10208188;28;991;-82
2023/01/28 01:02:17;;;;;;;;;;;17.00;48.90;;;;;;10208289;28;1906;-82
2023/01/28 01:07:12;;;;;;;;;;;17.00;48.90;;;;;;10208580;28;858;-82
2023/01/28 01:12:07;;;;;;;;;;;17.00;48.90;;;;;;10208177;28;853;-82
2023/01/28 01:17:03;;;;;;;;;;;17.00;48.90;;;;;;10207499;28;796;-82
2023/01/28 01:21:58;;;;;;;;;;;16.90;48.90;;;;;;10206551;28;1951;-82
2023/01/28 01:26:54;;;;;;;;;;;17.00;48.80;;;;;;10208459;28;835;-82
2023/01/28 01:31:49;;;;;;;;;;;16.90;48.90;;;;;;10207207;28;1038;-82
2023/01/28 01:36:44;;;;;;;;;;;17.00;48.90;;;;;;10207308;28;847;-82
2023/01/28 01:41:40;;;;;;;;;;;17.00;48.80;;;;;;10206972;28;1886;-82
2023/01/28 01:46:35;;;;;;;;;;;17.00;48.90;;;;;;10206854;28;904;-82
2023/01/28 01:51:30;;;;;;;;;;;17.00;48.80;;;;;;10206991;28;876;-82
2023/01/28 01:56:26;;;;;;;;;;;17.00;48.80;;;;;;10206575;28;843;-82
2023/01/28 02:01:21;;;;;;;;;;;17.00;48.80;;;;;;10205784;28;1507;-82
2023/01/28 02:06:16;;;;;;;;;;;17.00;48.80;;;;;;10205851;28;1990;-82
2023/01/28 02:11:12;;;;;;;;;;;17.00;48.80;;;;;;10205442;28;759;-82
2023/01/28 02:16:07;;;;;;;;;;;17.00;48.80;;;;;;10205304;28;849;-82
2023/01/28 02:21:02;;;;;;;;;;;17.00;48.80;;;;;;10205699;28;805;-82
2023/01/28 02:25:58;;;;;;;;;;;17.00;48.80;;;;;;10204423;28;1907;-82
2023/01/28 02:30:53;;;;;;;;;;;17.00;48.80;;;;;;10205199;28;900;-82
2023/01/28 02:35:48;;;;;;;;;;;16.90;48.80;;;;;;10205246;28;821;-82
2023/01/28 02:41:03;;;;;;;;;;;17.00;48.80;;;;;;10205091;28;932;-82
2023/01/28 02:51:13;;;;;;;;;;;16.90;48.80;;;;;;10204389;28;648;-82
2023/01/28 02:56:08;;;;;;;;;;;16.90;48.80;;;;;;10204785;28;975;-82
2023/01/28 03:01:03;;;;;;;;;;;16.90;48.80;;;;;;10204086;28;1146;-82
2023/01/28 03:06:08;;;;;;;;;;;16.90;48.80;;;;;;10204454;28;1976;-82
2023/01/28 03:37:14;;;;;;;;;;;16.90;48.70;;;;;;10202919;28;611;-82
2023/01/28 03:42:09;;;;;;;;;;;16.90;48.70;;;;;;10211022;28;1906;-82
2023/01/28 03:47:06;;;;;;;;;;;16.90;48.70;;;;;;10210894;28;950;-82
2023/01/28 03:52:01;;;;;;;;;;;17.00;48.80;;;;;;10210676;28;888;-82
2023/01/28 03:56:56;;;;;;;;;;;16.90;48.80;;;;;;10209986;28;868;-82
2023/01/28 04:01:52;;;;;;;;;;;16.90;48.80;;;;;;10210632;28;1910;-82
2023/01/28 04:06:47;;;;;;;;;;;16.90;48.70;;;;;;10210189;28;799;-82
2023/01/28 04:11:42;;;;;;;;;;;16.90;48.80;;;;;;10209963;28;763;-82
2023/01/28 04:16:38;;;;;;;;;;;16.90;48.70;;;;;;10210366;28;857;-82
2023/01/28 04:21:33;;;;;;;;;;;16.90;48.70;;;;;;10208998;28;999;-82
2023/01/28 04:26:29;;;;;;;;;;;16.90;48.70;;;;;;10209358;28;1894;-82
2023/01/28 04:31:24;;;;;;;;;;;17.00;48.70;;;;;;10209788;28;1248;-82
2023/01/28 04:36:19;;;;;;;;;;;16.90;48.60;;;;;;10209148;28;873;-82
2023/01/28 04:41:15;;;;;;;;;;;16.90;48.60;;;;;;10208810;28;818;-82
2023/01/28 04:46:10;;;;;;;;;;;17.00;48.70;;;;;;10208846;28;1974;-82
2023/01/28 04:51:06;;;;;;;;;;;16.90;48.70;;;;;;10207499;28;945;-82
2023/01/28 04:56:01;;;;;;;;;;;17.00;48.70;;;;;;10208846;28;824;-82
2023/01/28 05:00:57;;;;;;;;;;;16.90;48.70;;;;;;10208551;28;1138;-82
2023/01/28 05:05:52;;;;;;;;;;;16.90;48.70;;;;;;10208445;28;1968;-82
2023/01/28 05:10:47;;;;;;;;;;;16.90;48.60;;;;;;10207705;28;778;-82
2023/01/28 05:15:43;;;;;;;;;;;17.00;48.60;;;;;;10207526;28;818;-82
2023/01/28 05:20:38;;;;;;;;;;;17.00;48.50;;;;;;10207322;28;882;-82
2023/01/28 05:25:34;;;;;;;;;;;17.00;48.50;;;;;;10207060;28;1902;-81
2023/01/28 05:30:29;;;;;;;;;;;17.00;48.40;;;;;;10207543;28;861;-82
2023/01/28 05:35:24;;;;;;;;;;;17.00;48.30;;;;;;10206492;28;1084;-82
2023/01/28 05:40:20;;;;;;;;;;;17.10;48.40;;;;;;10206626;28;778;-82
2023/01/28 05:45:15;;;;;;;;;;;17.10;48.40;;;;;;10206939;28;1962;-82
2023/01/28 05:50:10;;;;;;;;;;;17.10;48.30;;;;;;10206230;28;975;-82
2023/01/28 05:55:06;;;;;;;;;;;17.10;48.30;;;;;;10206129;28;764;-81
2023/01/28 06:00:02;;;;;;;;;;;17.10;48.30;;;;;;10206184;28;1114;-82
2023/01/28 06:04:57;;;;;;;;;;;17.10;48.40;;;;;;10205560;28;1902;-82
2023/01/28 06:09:52;;;;;;;;;;;17.10;48.30;;;;;;10205535;28;872;-82
2023/01/28 06:14:48;;;;;;;;;;;17.10;48.90;;;;;;10205404;28;723;-82
2023/01/28 06:19:43;;;;;;;;;;;17.10;48.30;;;;;;10205192;28;818;-82
2023/01/28 06:24:38;;;;;;;;;;;17.10;48.30;;;;;;10205190;28;1960;-82
2023/01/28 06:29:34;;;;;;;;;;;17.10;48.40;;;;;;10204313;28;983;-82
2023/01/28 06:34:29;;;;;;;;;;;17.10;48.40;;;;;;10204727;28;859;-82
2023/01/28 06:39:27;;;;;;;;;;;17.10;48.40;;;;;;10205191;28;845;-82
2023/01/28 06:44:22;;;;;;;;;;;17.10;48.40;;;;;;10204494;28;1962;-82
2023/01/28 06:49:17;;;;;;;;;;;17.10;48.40;;;;;;10204944;28;822;-82
2023/01/28 06:54:13;;;;;;;;;;;17.10;48.40;;;;;;10204552;28;895;-84
2023/01/28 06:59:08;;;;;;;;;;;17.10;48.30;;;;;;10203873;28;1273;-76
2023/01/28 07:04:04;;;;;;;;;;;17.10;48.30;;;;;;10204733;28;1903;-76
2023/01/28 07:08:59;;;;;;;;;;;17.10;48.40;;;;;;10204171;28;869;-75
2023/01/28 07:13:54;;;;;;;;;;;17.00;48.30;;;;;;10206769;28;877;-77
2023/01/28 07:18:50;;;;;;;;;;;17.00;48.40;;;;;;10212040;28;787;-77
2023/01/28 07:23:45;;;;;;;;;;;17.00;48.40;;;;;;10211739;28;1973;-77
2023/01/28 07:28:40;;;;;;;;;;;17.00;48.40;;;;;;10212044;28;1027;-77
2023/01/28 07:33:36;;;;;;;;;;;17.00;48.40;;;;;;10211497;28;888;-76
2023/01/28 07:38:31;;;;;;;;;;;17.00;48.30;;;;;;10211852;28;852;-76
2023/01/28 07:43:27;;;;;;;;;;;17.10;48.30;;;;;;10210473;28;1902;-76
2023/01/28 07:48:22;;;;;;;;;;;17.00;48.20;;;;;;10210924;28;738;-74
2023/01/28 07:53:18;;;;;;;;;;;17.30;48.20;;;;;;10210736;28;991;-71
2023/01/28 07:58:13;;;;;;;;;;;17.40;48.10;;;;;;10210419;28;1062;-70
2023/01/28 08:03:09;;;;;;;;;;;17.40;47.90;;;;;;10210363;28;1910;-71
2023/01/28 08:08:04;;;;;;;;;;;17.40;47.90;;;;;;10210740;28;830;-71
2023/01/28 08:13:00;;;;;;;;;;;17.50;47.90;;;;;;10209402;28;889;-71
2023/01/28 08:17:55;;;;;;;;;;;17.60;47.80;;;;;;10210410;28;863;-71
2023/01/28 08:22:51;;;;;;;;;;;17.50;47.80;;;;;;10210034;28;1956;-73
2023/01/28 08:27:46;;;;;;;;;;;17.50;47.90;;;;;;10209318;28;877;-71
2023/01/28 08:32:42;;;;;;;;;;;17.50;47.90;;;;;;10209336;28;920;-75
2023/01/28 08:37:37;;;;;;;;;;;17.60;47.70;;;;;;10209046;28;770;-75
2023/01/28 08:42:32;;;;;;;;;;;17.50;47.60;;;;;;10209847;28;1967;-74
2023/01/28 08:47:28;;;;;;;;;;;17.50;47.70;;;;;;10208625;28;870;-75
2023/01/28 08:52:23;;;;;;;;;;;17.60;48.30;;;;;;10208356;28;872;-74
2023/01/28 08:57:18;;;;;;;;;;;17.60;47.50;;;;;;10209512;28;936;-74
2023/01/28 09:02:14;;;;;;;;;;;17.60;47.30;;;;;;10208179;28;1969;-75
2023/01/28 09:07:09;;;;;;;;;;;17.60;47.30;;;;;;10208516;28;899;-75
2023/01/28 09:12:07;;;;;;;;;;;17.60;47.40;;;;;;10207748;28;829;-75
2023/01/28 09:17:02;;;;;;;;;;;17.60;47.40;;;;;;10207614;28;786;-74
2023/01/28 09:21:57;;;;;;;;;;;17.60;47.50;;;;;;10206753;28;1890;-74
2023/01/28 09:26:53;;;;;;;;;;;17.70;48.00;;;;;;10207183;28;967;-75
2023/01/28 09:31:48;;;;;;;;;;;17.60;48.20;;;;;;10206993;28;959;-75
2023/01/28 09:36:44;;;;;;;;;;;17.60;48.30;;;;;;10206095;28;995;-76
2023/01/28 09:41:39;;;;;;;;;;;17.60;48.20;;;;;;10206654;28;914;-75
2023/01/28 09:46:34;;;;;;;;;;;17.60;48.20;;;;;;10206943;28;1958;-75
2023/01/28 09:51:30;;;;;;;;;;;17.70;48.20;;;;;;10206860;28;881;-75
2023/01/28 09:56:25;;;;;;;;;;;17.60;48.20;;;;;;10206714;28;857;-75
2023/01/28 10:01:20;;;;;;;;;;;17.70;48.10;;;;;;10206328;28;1272;-74
2023/01/28 10:06:16;;;;;;;;;;;17.70;48.10;;;;;;10205907;28;1906;-74
2023/01/28 10:11:11;;;;;;;;;;;17.60;48.20;;;;;;10205231;28;851;-74
2023/01/28 10:16:07;;;;;;;;;;;17.60;48.20;;;;;;10205403;28;772;-74
2023/01/28 10:21:02;;;;;;;;;;;17.50;48.30;;;;;;10205827;28;869;-73
2023/01/28 10:25:58;;;;;;;;;;;17.50;48.40;;;;;;10204992;28;1957;-74
2023/01/28 10:30:53;;;;;;;;;;;17.40;48.30;;;;;;10204721;28;984;-73
2023/01/28 10:35:49;;;;;;;;;;;17.40;48.10;;;;;;10204745;28;936;-74
2023/01/28 10:40:46;;;;;;;;;;;17.40;48.10;;;;;;10205192;28;912;-73
2023/01/28 10:45:42;;;;;;;;;;;17.50;48.00;;;;;;10203933;28;1910;-74
2023/01/28 10:50:37;;;;;;;;;;;17.50;47.90;;;;;;10203614;28;795;-74
2023/01/28 10:55:32;;;;;;;;;;;17.50;47.90;;;;;;10204211;28;916;-74
2023/01/28 11:00:29;;;;;;;;;;;17.50;48.00;;;;;;10204158;28;1366;-76
2023/01/28 11:05:26;;;;;;;;;;;17.50;48.10;;;;;;10203989;28;1918;-76
2023/01/28 11:10:21;;;;;;;;;;;17.50;48.10;;;;;;10203810;28;887;-83
2023/01/28 11:15:17;;;;;;;;;;;17.30;48.20;;;;;;10203549;28;888;-82
2023/01/28 11:20:12;;;;;;;;;;;17.20;48.40;;;;;;10203812;28;1155;-84
2023/01/28 11:25:07;;;;;;;;;;;17.10;48.60;;;;;;10203593;28;1923;-84
2023/01/28 11:30:03;;;;;;;;;;;17.10;48.60;;;;;;10204145;28;911;-84
2023/01/28 11:35:02;;;;;;;;;;;17.10;48.60;;;;;;10203448;28;875;-84
2023/01/28 11:39:58;;;;;;;;;;;17.10;48.60;;;;;;10204182;28;823;-84
2023/01/28 11:44:53;;;;;;;;;;;17.10;48.60;;;;;;10203282;28;1934;-84
2023/01/28 11:49:48;;;;;;;;;;;17.10;48.60;;;;;;10203757;28;861;-85
2023/01/28 11:54:44;;;;;;;;;;;17.10;48.60;;;;;;10203035;28;960;-84
2023/01/28 11:59:39;;;;;;;;;;;17.10;48.50;;;;;;10205207;28;1292;-84
2023/01/28 12:04:35;;;;;;;;;;;17.10;48.60;;;;;;10210920;28;1918;-84
2023/01/28 12:09:30;;;;;;;;;;;17.10;48.50;;;;;;10210709;28;785;-84
2023/01/28 12:14:27;;;;;;;;;;;17.10;48.50;;;;;;10209901;28;862;-84
2023/01/28 12:19:22;;;;;;;;;;;17.10;48.50;;;;;;10210023;28;806;-85
2023/01/28 12:24:18;;;;;;;;;;;17.10;48.40;;;;;;10209495;28;1930;-85
2023/01/28 12:29:13;;;;;;;;;;;17.10;48.50;;;;;;10209258;28;771;-83
2023/01/28 12:34:08;;;;;;;;;;;17.00;48.40;;;;;;10209841;28;860;-90
2023/01/28 12:39:04;;;;;;;;;;;17.00;48.40;;;;;;10209616;28;944;-90
2023/01/28 12:44:00;;;;;;;;;;;17.00;48.50;;;;;;10209145;28;1902;-90
2023/01/28 12:48:55;;;;;;;;;;;17.00;48.50;;;;;;10209239;28;871;-90
2023/01/28 12:53:51;;;;;;;;;;;17.00;48.50;;;;;;10209078;28;997;-90
2023/01/28 12:58:46;;;;;;;;;;;17.00;48.40;;;;;;10209277;28;1320;-90
2023/01/28 13:03:41;;;;;;;;;;;17.00;48.40;;;;;;10208028;28;1938;-81
2023/01/28 13:08:37;;;;;;;;;;;17.00;48.40;;;;;;10207821;28;1510;-89
2023/01/28 13:13:32;;;;;;;;;;;17.10;48.30;;;;;;10207469;28;967;-89
2023/01/28 13:18:27;;;;;;;;;;;17.20;48.00;;;;;;10207550;28;775;-87
2023/01/28 13:23:23;;;;;;;;;;;17.20;48.00;;;;;;10207032;28;1910;-87
2023/01/28 13:28:18;;;;;;;;;;;17.20;48.00;;;;;;10207564;28;938;-87
2023/01/28 13:33:14;;;;;;;;;;;17.30;47.80;;;;;;10206810;28;960;-87
2023/01/28 13:38:09;;;;;;;;;;;17.40;47.70;;;;;;10207304;28;900;-87
2023/01/28 13:43:04;;;;;;;;;;;17.40;47.80;;;;;;10205671;28;1962;-85
2023/01/28 13:48:00;;;;;;;;;;;17.50;47.70;;;;;;10206224;28;1003;-84
2023/01/28 13:52:55;;;;;;;;;;;17.40;47.80;;;;;;10205923;28;942;-84
2023/01/28 13:57:50;;;;;;;;;;;17.30;47.90;;;;;;10205956;28;883;-86
2023/01/28 14:02:46;;;;;;;;;;;17.30;47.90;;;;;;10204759;28;1988;-85
2023/01/28 14:07:41;;;;;;;;;;;17.20;47.90;;;;;;10204971;28;928;-84
2023/01/28 14:12:37;;;;;;;;;;;17.30;48.00;;;;;;10205907;28;885;-77
2023/01/28 14:17:32;;;;;;;;;;;17.30;47.80;;;;;;10205073;28;830;-78
2023/01/28 14:22:27;;;;;;;;;;;17.70;47.80;;;;;;10205497;28;1963;-79
2023/01/28 14:27:23;;;;;;;;;;;17.80;47.30;;;;;;10205451;28;981;-79
2023/01/28 14:32:18;;;;;;;;;;;17.80;47.30;;;;;;10202749;28;1260;-76
2023/01/28 14:37:13;;;;;;;;;;;17.80;47.20;;;;;;10203560;28;833;-73
2023/01/28 14:42:09;;;;;;;;;;;17.90;47.10;;;;;;10203587;28;1969;-74
2023/01/28 14:47:04;;;;;;;;;;;17.90;47.20;;;;;;10204159;28;891;-74
2023/01/28 14:51:59;;;;;;;;;;;17.80;47.80;;;;;;10204090;28;780;-74
2023/01/28 14:56:55;;;;;;;;;;;17.80;48.90;;;;;;10203895;28;1605;-74
2023/01/28 15:01:50;;;;;;;;;;;17.80;49.80;;;;;;10204003;28;1434;-74
2023/01/28 15:06:46;;;;;;;;;;;17.90;50.20;;;;;;10203634;28;1963;-74
2023/01/28 15:11:43;;;;;;;;;;;18.00;50.50;;;;;;10202970;28;881;-76
2023/01/28 15:16:38;;;;;;;;;;;18.00;50.60;;;;;;10203425;28;970;-71
2023/01/28 15:21:34;;;;;;;;;;;18.00;50.60;;;;;;10203425;28;904;-74
2023/01/28 15:26:29;;;;;;;;;;;17.90;50.30;;;;;;10203215;28;1902;-74
2023/01/28 15:31:25;;;;;;;;;;;17.90;50.90;;;;;;10203198;28;970;-72
2023/01/28 15:36:20;;;;;;;;;;;17.80;51.20;;;;;;10208953;28;870;-75
2023/01/28 15:41:15;;;;;;;;;;;17.90;51.50;;;;;;10211516;28;906;-75
2023/01/28 15:46:12;;;;;;;;;;;17.90;51.30;;;;;;10210892;28;1898;-75
2023/01/28 15:51:07;;;;;;;;;;;17.80;51.70;;;;;;10210684;28;861;-75
2023/01/28 15:56:03;;;;;;;;;;;18.00;51.00;;;;;;10207244;28;1192;-74
2023/01/28 16:00:58;;;;;;;;;;;17.90;51.20;;;;;;10209810;28;1279;-74
2023/01/28 16:05:54;;;;;;;;;;;17.90;51.10;;;;;;10209528;28;1965;-74
2023/01/28 16:10:49;;;;;;;;;;;17.80;50.80;;;;;;10209546;28;889;-74
2023/01/28 16:15:44;;;;;;;;;;;17.80;50.50;;;;;;10209339;28;813;-74
2023/01/28 16:20:40;;;;;;;;;;;17.90;50.20;;;;;;10209551;28;809;-74
2023/01/28 16:25:40;;;;;;;;;;;17.90;50.00;;;;;;10208794;28;1894;-74
2023/01/28 16:30:35;;;;;;;;;;;17.80;49.90;;;;;;10209699;28;955;-75
2023/01/28 16:35:31;;;;;;;;;;;17.70;50.70;;;;;;10210502;28;833;-74
2023/01/28 16:40:26;;;;;;;;;;;17.70;50.40;;;;;;10209906;28;930;-74
2023/01/28 16:45:22;;;;;;;;;;;17.70;50.50;;;;;;10208370;28;1894;-74
2023/01/28 16:50:17;;;;;;;;;;;17.70;50.70;;;;;;10208818;28;825;-74
2023/01/28 16:55:12;;;;;;;;;;;17.70;50.50;;;;;;10208592;28;1015;-74
2023/01/28 17:00:08;;;;;;;;;;;17.70;50.50;;;;;;10208630;28;1237;-74
2023/01/28 17:05:03;;;;;;;;;;;17.70;50.40;;;;;;10208946;28;1971;-74
2023/01/28 17:09:58;;;;;;;;;;;17.70;50.20;;;;;;10208486;28;837;-75
2023/01/28 17:14:54;;;;;;;;;;;17.70;50.20;;;;;;10207796;28;794;-74
2023/01/28 17:19:49;;;;;;;;;;;17.70;49.90;;;;;;10208260;28;778;-75
2023/01/28 17:24:45;;;;;;;;;;;17.70;49.70;;;;;;10208241;28;1890;-75
2023/01/28 17:29:40;;;;;;;;;;;17.70;49.60;;;;;;10206638;28;692;-74
2023/01/28 17:34:36;;;;;;;;;;;17.70;49.30;;;;;;10206509;28;892;-74
2023/01/28 17:39:31;;;;;;;;;;;17.70;49.30;;;;;;10208007;28;853;-75
2023/01/28 17:44:26;;;;;;;;;;;17.70;49.40;;;;;;10207177;28;1953;-74
2023/01/28 17:49:22;;;;;;;;;;;17.70;49.40;;;;;;10206442;28;970;-74
2023/01/28 17:54:17;;;;;;;;;;;17.70;49.50;;;;;;10206303;28;856;-74
2023/01/28 17:59:14;;;;;;;;;;;17.70;49.50;;;;;;10205479;28;1519;-74
2023/01/28 18:04:09;;;;;;;;;;;17.70;49.30;;;;;;10206674;28;1976;-74
2023/01/28 18:09:05;;;;;;;;;;;17.70;49.10;;;;;;10205630;28;942;-74
2023/01/28 18:14:01;;;;;;;;;;;17.80;49.10;;;;;;10206185;28;875;-74
2023/01/28 18:18:56;;;;;;;;;;;17.80;48.80;;;;;;10204846;28;770;-74
2023/01/28 18:23:52;;;;;;;;;;;17.70;48.80;;;;;;10204497;28;1906;-73
2023/01/28 18:28:48;;;;;;;;;;;17.70;48.80;;;;;;10205042;28;982;-72
2023/01/28 18:33:43;;;;;;;;;;;17.60;48.90;;;;;;10204755;28;862;-74
2023/01/28 18:38:38;;;;;;;;;;;17.70;48.90;;;;;;10204566;28;791;-75
2023/01/28 18:43:34;;;;;;;;;;;17.70;49.00;;;;;;10204472;28;1907;-74
2023/01/28 18:48:29;;;;;;;;;;;17.70;48.90;;;;;;10204205;28;849;-74
2023/01/28 18:53:25;;;;;;;;;;;17.80;49.00;;;;;;10204017;28;776;-75
2023/01/28 18:58:20;;;;;;;;;;;17.80;49.00;;;;;;10203779;28;1077;-75
2023/01/28 19:03:15;;;;;;;;;;;17.70;49.00;;;;;;10203861;28;1915;-75
2023/01/28 19:08:11;;;;;;;;;;;17.70;48.70;;;;;;10203683;28;817;-75
2023/01/28 19:13:06;;;;;;;;;;;17.80;48.60;;;;;;10203519;28;809;-75
2023/01/28 19:18:02;;;;;;;;;;;17.80;48.80;;;;;;10203550;28;825;-75
2023/01/28 19:22:57;;;;;;;;;;;17.80;48.90;;;;;;10203408;28;1902;-74
2023/01/28 19:27:53;;;;;;;;;;;17.70;48.80;;;;;;10203928;28;782;-86
2023/01/28 19:32:49;;;;;;;;;;;17.80;48.80;;;;;;10202724;28;904;-85
2023/01/28 19:37:45;;;;;;;;;;;17.50;49.30;;;;;;10202598;28;864;-81
2023/01/28 19:42:40;;;;;;;;;;;17.30;49.60;;;;;;10203169;28;1902;-83
2023/01/28 19:47:36;;;;;;;;;;;17.30;49.90;;;;;;10203916;28;858;-82
2023/01/28 19:52:31;;;;;;;;;;;17.20;49.70;;;;;;10204443;28;920;-83
2023/01/28 19:57:27;;;;;;;;;;;17.20;49.80;;;;;;10203761;28;900;-83
2023/01/28 20:02:22;;;;;;;;;;;17.20;49.70;;;;;;10202189;28;1902;-82
2023/01/28 20:07:17;;;;;;;;;;;17.20;49.70;;;;;;10203565;28;829;-82
2023/01/28 20:12:13;;;;;;;;;;;17.10;49.60;;;;;;10202890;28;975;-83
2023/01/28 20:17:09;;;;;;;;;;;17.20;49.50;;;;;;10202941;28;787;-82
2023/01/28 20:22:04;;;;;;;;;;;17.20;49.50;;;;;;10206421;28;939;-82
2023/01/28 20:27:00;;;;;;;;;;;17.20;49.40;;;;;;10210189;28;1910;-82
2023/01/28 20:31:55;;;;;;;;;;;17.20;49.30;;;;;;10210176;28;932;-82
2023/01/28 20:36:50;;;;;;;;;;;17.20;49.30;;;;;;10209332;28;783;-83
2023/01/28 20:41:46;;;;;;;;;;;17.20;49.30;;;;;;10209146;28;794;-83
2023/01/28 20:46:41;;;;;;;;;;;17.20;49.20;;;;;;10209037;28;1910;-83
2023/01/28 20:51:37;;;;;;;;;;;17.10;49.20;;;;;;10209387;28;821;-82
2023/01/28 20:56:32;;;;;;;;;;;17.10;49.80;;;;;;10207956;28;957;-83
2023/01/28 21:01:27;;;;;;;;;;;17.10;49.30;;;;;;10208598;28;1185;-83
2023/01/28 21:06:23;;;;;;;;;;;17.10;49.20;;;;;;10208219;28;1914;-83
2023/01/28 21:11:18;;;;;;;;;;;17.10;49.20;;;;;;10208672;28;867;-83
2023/01/28 21:16:14;;;;;;;;;;;17.10;49.20;;;;;;10207356;28;868;-83
2023/01/28 21:21:09;;;;;;;;;;;17.10;49.10;;;;;;10207608;28;802;-85
2023/01/28 21:26:05;;;;;;;;;;;17.00;49.20;;;;;;10207423;28;1964;-82
2023/01/28 21:31:00;;;;;;;;;;;17.00;49.00;;;;;;10207336;28;1004;-83
2023/01/28 21:35:56;;;;;;;;;;;17.00;49.00;;;;;;10207519;28;979;-82
2023/01/28 21:40:51;;;;;;;;;;;17.00;49.10;;;;;;10206907;28;892;-82
2023/01/28 21:45:47;;;;;;;;;;;17.10;49.00;;;;;;10207185;28;1894;-82
2023/01/28 21:55:56;;;;;;;;;;;17.00;48.90;;;;;;10205919;28;608;-82
2023/01/28 22:00:53;;;;;;;;;;;17.00;48.80;;;;;;10206824;28;1264;-81
2023/01/28 22:05:48;;;;;;;;;;;17.10;48.90;;;;;;10205882;28;1973;-81
2023/01/28 22:10:43;;;;;;;;;;;17.10;48.80;;;;;;10205768;28;759;-81
2023/01/28 22:15:39;;;;;;;;;;;17.00;48.80;;;;;;10205642;28;771;-82
2023/01/28 22:20:35;;;;;;;;;;;17.00;48.80;;;;;;10206078;28;961;-81
2023/01/28 22:25:30;;;;;;;;;;;17.00;48.70;;;;;;10205264;28;1906;-82
2023/01/28 22:30:25;;;;;;;;;;;17.00;48.80;;;;;;10205077;28;1011;-81
2023/01/28 22:35:21;;;;;;;;;;;17.00;48.70;;;;;;10205009;28;786;-81
2023/01/28 22:40:16;;;;;;;;;;;17.00;48.60;;;;;;10205382;28;802;-81
2023/01/28 22:45:11;;;;;;;;;;;17.00;48.60;;;;;;10203844;28;1902;-81
2023/01/28 22:50:07;;;;;;;;;;;17.00;48.60;;;;;;10204557;28;789;-81
2023/01/28 22:55:02;;;;;;;;;;;17.00;48.70;;;;;;10204428;28;768;-81
2023/01/28 22:59:58;;;;;;;;;;;17.00;48.70;;;;;;10204856;28;1153;-81
2023/01/28 23:04:53;;;;;;;;;;;17.00;48.60;;;;;;10204192;28;1914;-81
2023/01/28 23:09:50;;;;;;;;;;;17.00;48.60;;;;;;10204619;28;879;-81
2023/01/28 23:25:14;;;;;;;;;;;17.00;48.40;;;;;;10203914;28;1902;-81
2023/01/28 23:30:09;;;;;;;;;;;17.00;48.40;;;;;;10204470;28;880;-81
2023/01/28 23:35:04;;;;;;;;;;;17.00;48.50;;;;;;10202971;28;983;-81
2023/01/28 23:40:00;;;;;;;;;;;17.00;48.40;;;;;;10204183;28;897;-81
2023/01/28 23:44:55;;;;;;;;;;;17.00;48.40;;;;;;10203360;28;1906;-81
2023/01/28 23:49:51;;;;;;;;;;;17.00;48.40;;;;;;10203249;28;902;-82
2023/01/28 23:54:46;;;;;;;;;;;17.00;48.30;;;;;;10204226;28;849;-81
2023/01/28 23:59:41;;;;;;;;;;;17.00;48.40;;;;;;10210035;28;1508;-83
